sensor_id;sensor_type;location;lat;lon;timestamp;pressure;altitude;pressure_sealevel;temperature;humidity
3917;BME280;1973;50.518;7.318;2022-08-21T00:00:23;101090.97;;;16.63;100.00
3917;BME280;1973;50.518;7.318;2022-08-21T00:02:54;101088.69;;;16.60;100.00
3917;BME280;1973;50.518;7.318;2022-08-21T00:05:22;101078.06;;;16.57;100.00
3917;BME280;1973;50.518;7.318;2022-08-21T00:07:49;101080.00;;;16.57;100.00
3917;BME280;1973;50.518;7.318;2022-08-21T00:10:16;101074.69;;;16.55;100.00
3917;BME280;1973;50.518;7.318;2022-08-21T00:12:44;101076.84;;;16.53;100.00
3917;BME280;1973;50.518;7.318;2022-08-21T00:15:14;101076.28;;;16.51;100.00
3917;BME280;1973;50.518;7.318;2022-08-21T00:17:41;101077.00;;;16.46;100.00
3917;BME280;1973;50.518;7.318;2022-08-21T00:20:09;101077.84;;;16.47;100.00
3917;BME280;1973;50.518;7.318;2022-08-21T00:22:36;101070.00;;;16.44;100.00
3917;BME280;1973;50.518;7.318;2022-08-21T00:25:04;101077.50;;;16.43;100.00
3917;BME280;1973;50.518;7.318;2022-08-21T00:27:32;101067.69;;;16.41;100.00
3917;BME280;1973;50.518;7.318;2022-08-21T00:29:59;101062.16;;;16.41;100.00
3917;BME280;1973;50.518;7.318;2022-08-21T00:32:27;101066.03;;;16.40;100.00
3917;BME280;1973;50.518;7.318;2022-08-21T00:34:54;101062.41;;;16.39;100.00
3917;BME280;1973;50.518;7.318;2022-08-21T00:37:21;101058.19;;;16.37;100.00
3917;BME280;1973;50.518;7.318;2022-08-21T00:39:48;101059.78;;;16.33;100.00
3917;BME280;1973;50.518;7.318;2022-08-21T00:42:16;101053.38;;;16.32;100.00
3917;BME280;1973;50.518;7.318;2022-08-21T00:44:48;101059.78;;;16.33;100.00
3917;BME280;1973;50.518;7.318;2022-08-21T00:47:18;101065.34;;;16.33;100.00
3917;BME280;1973;50.518;7.318;2022-08-21T00:49:44;101060.59;;;16.33;100.00
3917;BME280;1973;50.518;7.318;2022-08-21T00:52:17;101055.03;;;16.33;100.00
3917;BME280;1973;50.518;7.318;2022-08-21T00:54:47;101062.78;;;16.31;100.00
3917;BME280;1973;50.518;7.318;2022-08-21T00:57:19;101060.03;;;16.31;100.00
3917;BME280;1973;50.518;7.318;2022-08-21T00:59:51;101053.03;;;16.29;100.00
3917;BME280;1973;50.518;7.318;2022-08-21T01:02:20;101054.00;;;16.23;100.00
3917;BME280;1973;50.518;7.318;2022-08-21T01:04:47;101049.78;;;16.20;100.00
3917;BME280;1973;50.518;7.318;2022-08-21T01:07:14;101049.44;;;16.17;100.00
3917;BME280;1973;50.518;7.318;2022-08-21T01:09:41;101058.75;;;16.11;100.00
3917;BME280;1973;50.518;7.318;2022-08-21T01:14:43;101051.88;;;16.01;100.00
3917;BME280;1973;50.518;7.318;2022-08-21T01:17:13;101061.31;;;16.00;100.00
3917;BME280;1973;50.518;7.318;2022-08-21T01:19:40;101052.38;;;15.98;100.00
3917;BME280;1973;50.518;7.318;2022-08-21T01:22:07;101048.53;;;15.99;100.00
3917;BME280;1973;50.518;7.318;2022-08-21T01:24:33;101039.56;;;15.97;100.00
3917;BME280;1973;50.518;7.318;2022-08-21T01:27:00;101043.56;;;16.01;100.00
3917;BME280;1973;50.518;7.318;2022-08-21T01:29:49;101047.53;;;16.05;100.00
3917;BME280;1973;50.518;7.318;2022-08-21T01:32:19;101035.94;;;16.08;100.00
3917;BME280;1973;50.518;7.318;2022-08-21T01:34:48;101035.44;;;16.12;100.00
3917;BME280;1973;50.518;7.318;2022-08-21T01:37:15;101039.91;;;16.13;100.00
3917;BME280;1973;50.518;7.318;2022-08-21T01:39:43;101041.09;;;16.17;100.00
3917;BME280;1973;50.518;7.318;2022-08-21T01:42:11;101037.47;;;16.16;100.00
3917;BME280;1973;50.518;7.318;2022-08-21T01:44:37;101041.09;;;16.17;100.00
3917;BME280;1973;50.518;7.318;2022-08-21T01:47:08;101044.47;;;16.19;100.00
3917;BME280;1973;50.518;7.318;2022-08-21T01:49:36;101042.81;;;16.18;100.00
3917;BME280;1973;50.518;7.318;2022-08-21T01:52:04;101042.19;;;16.16;100.00
3917;BME280;1973;50.518;7.318;2022-08-21T01:54:35;101057.41;;;16.13;100.00
3917;BME280;1973;50.518;7.318;2022-08-21T01:57:02;101048.25;;;16.13;100.00
3917;BME280;1973;50.518;7.318;2022-08-21T01:59:29;101053.78;;;16.13;100.00
3917;BME280;1973;50.518;7.318;2022-08-21T02:01:56;101048.25;;;16.13;100.00
3917;BME280;1973;50.518;7.318;2022-08-21T02:04:23;101048.25;;;16.13;100.00
3917;BME280;1973;50.518;7.318;2022-08-21T02:06:50;101044.03;;;16.10;100.00
3917;BME280;1973;50.518;7.318;2022-08-21T02:09:18;101049.22;;;16.06;100.00
3917;BME280;1973;50.518;7.318;2022-08-21T02:11:45;101044.63;;;16.00;100.00
3917;BME280;1973;50.518;7.318;2022-08-21T02:14:13;101047.56;;;15.94;100.00
3917;BME280;1973;50.518;7.318;2022-08-21T02:16:55;101047.09;;;15.85;100.00
3917;BME280;1973;50.518;7.318;2022-08-21T02:19:34;101039.16;;;15.77;100.00
3917;BME280;1973;50.518;7.318;2022-08-21T02:22:06;101041.81;;;15.72;100.00
3917;BME280;1973;50.518;7.318;2022-08-21T02:24:32;101042.53;;;15.68;100.00
3917;BME280;1973;50.518;7.318;2022-08-21T02:26:59;101050.50;;;15.64;100.00
3917;BME280;1973;50.518;7.318;2022-08-21T02:29:25;101043.75;;;15.60;100.00
3917;BME280;1973;50.518;7.318;2022-08-21T02:31:52;101037.00;;;15.56;100.00
3917;BME280;1973;50.518;7.318;2022-08-21T02:34:19;101039.16;;;15.54;100.00
3917;BME280;1973;50.518;7.318;2022-08-21T02:36:45;101031.34;;;15.51;100.00
3917;BME280;1973;50.518;7.318;2022-08-21T02:39:25;101034.78;;;15.46;100.00
3917;BME280;1973;50.518;7.318;2022-08-21T02:41:53;101039.41;;;15.41;100.00
3917;BME280;1973;50.518;7.318;2022-08-21T02:44:19;101036.00;;;15.39;100.00
3917;BME280;1973;50.518;7.318;2022-08-21T02:46:55;101034.22;;;15.33;100.00
3917;BME280;1973;50.518;7.318;2022-08-21T02:49:21;101041.31;;;15.29;100.00
3917;BME280;1973;50.518;7.318;2022-08-21T02:51:48;101037.34;;;15.25;100.00
3917;BME280;1973;50.518;7.318;2022-08-21T02:54:14;101046.13;;;15.22;100.00
3917;BME280;1973;50.518;7.318;2022-08-21T02:56:41;101044.94;;;15.18;100.00
3917;BME280;1973;50.518;7.318;2022-08-21T02:59:07;101043.72;;;15.14;100.00
3917;BME280;1973;50.518;7.318;2022-08-21T03:01:34;101043.72;;;15.14;100.00
3917;BME280;1973;50.518;7.318;2022-08-21T03:04:00;101039.50;;;15.11;100.00
3917;BME280;1973;50.518;7.318;2022-08-21T03:06:26;101037.44;;;15.06;100.00
3917;BME280;1973;50.518;7.318;2022-08-21T03:08:53;101036.22;;;15.02;100.00
3917;BME280;1973;50.518;7.318;2022-08-21T03:11:20;101033.69;;;15.01;100.00
3917;BME280;1973;50.518;7.318;2022-08-21T03:13:47;101028.38;;;14.99;100.00
3917;BME280;1973;50.518;7.318;2022-08-21T03:16:13;101038.38;;;15.00;100.00
3917;BME280;1973;50.518;7.318;2022-08-21T03:18:40;101036.72;;;14.99;100.00
3917;BME280;1973;50.518;7.318;2022-08-21T03:21:06;101031.16;;;14.99;100.00
3917;BME280;1973;50.518;7.318;2022-08-21T03:23:33;101040.19;;;14.95;100.00
3917;BME280;1973;50.518;7.318;2022-08-21T03:26:00;101040.19;;;14.95;100.00
3917;BME280;1973;50.518;7.318;2022-08-21T03:28:27;101043.19;;;14.93;100.00
3917;BME280;1973;50.518;7.318;2022-08-21T03:30:54;101038.75;;;14.92;100.00
3917;BME280;1973;50.518;7.318;2022-08-21T03:33:21;101036.78;;;14.93;100.00
3917;BME280;1973;50.518;7.318;2022-08-21T03:35:57;101038.97;;;14.91;100.00
3917;BME280;1973;50.518;7.318;2022-08-21T03:38:25;101040.31;;;14.88;100.00
3917;BME280;1973;50.518;7.318;2022-08-21T03:40:53;101036.44;;;14.89;100.00
3917;BME280;1973;50.518;7.318;2022-08-21T03:43:20;101045.84;;;14.88;100.00
3917;BME280;1973;50.518;7.318;2022-08-21T03:45:46;101050.78;;;14.86;100.00
3917;BME280;1973;50.518;7.318;2022-08-21T03:48:13;101046.56;;;14.84;100.00
3917;BME280;1973;50.518;7.318;2022-08-21T03:50:42;101047.41;;;14.84;100.00
3917;BME280;1973;50.518;7.318;2022-08-21T03:53:11;101054.03;;;14.83;100.00
3917;BME280;1973;50.518;7.318;2022-08-21T03:55:47;101046.78;;;14.82;100.00
3917;BME280;1973;50.518;7.318;2022-08-21T03:58:16;101052.59;;;14.81;100.00
3917;BME280;1973;50.518;7.318;2022-08-21T04:00:47;101048.97;;;14.80;100.00
3917;BME280;1973;50.518;7.318;2022-08-21T04:03:15;101048.13;;;14.80;100.00
3917;BME280;1973;50.518;7.318;2022-08-21T04:05:42;101055.56;;;14.79;100.00
3917;BME280;1973;50.518;7.318;2022-08-21T04:08:09;101060.53;;;14.77;100.00
3917;BME280;1973;50.518;7.318;2022-08-21T04:10:37;101047.59;;;14.71;100.00
3917;BME280;1973;50.518;7.318;2022-08-21T04:13:06;101054.25;;;14.70;100.00
3917;BME280;1973;50.518;7.318;2022-08-21T04:15:33;101064.09;;;14.66;100.00
3917;BME280;1973;50.518;7.318;2022-08-21T04:18:00;101062.63;;;14.63;100.00
3917;BME280;1973;50.518;7.318;2022-08-21T04:20:27;101072.28;;;14.61;100.00
3917;BME280;1973;50.518;7.318;2022-08-21T04:22:54;101069.97;;;14.58;100.00
3917;BME280;1973;50.518;7.318;2022-08-21T04:25:22;101082.97;;;14.57;100.00
3917;BME280;1973;50.518;7.318;2022-08-21T04:27:49;101074.91;;;14.56;100.00
3917;BME280;1973;50.518;7.318;2022-08-21T04:30:16;101080.69;;;14.54;100.00
3917;BME280;1973;50.518;7.318;2022-08-21T04:32:44;101086.22;;;14.54;100.00
3917;BME280;1973;50.518;7.318;2022-08-21T04:35:13;101077.53;;;14.51;100.00
3917;BME280;1973;50.518;7.318;2022-08-21T04:37:39;101080.31;;;14.51;100.00
3917;BME280;1973;50.518;7.318;2022-08-21T04:40:09;101087.78;;;14.50;100.00
3917;BME280;1973;50.518;7.318;2022-08-21T04:42:43;101085.22;;;14.49;100.00
3917;BME280;1973;50.518;7.318;2022-08-21T04:45:26;101086.56;;;14.46;100.00
3917;BME280;1973;50.518;7.318;2022-08-21T04:47:55;101088.72;;;14.44;100.00
3917;BME280;1973;50.518;7.318;2022-08-21T04:50:27;101087.03;;;14.43;100.00
3917;BME280;1973;50.518;7.318;2022-08-21T04:52:55;101094.69;;;14.41;100.00
3917;BME280;1973;50.518;7.318;2022-08-21T04:55:22;101095.81;;;14.40;100.00
3917;BME280;1973;50.518;7.318;2022-08-21T04:57:50;101091.34;;;14.39;100.00
3917;BME280;1973;50.518;7.318;2022-08-21T05:00:20;101089.63;;;14.38;100.00
3917;BME280;1973;50.518;7.318;2022-08-21T05:02:48;101100.25;;;14.41;100.00
3917;BME280;1973;50.518;7.318;2022-08-21T05:05:15;101093.41;;;14.44;100.00
3917;BME280;1973;50.518;7.318;2022-08-21T05:07:42;101095.09;;;14.45;100.00
3917;BME280;1973;50.518;7.318;2022-08-21T05:10:10;101099.56;;;14.46;100.00
3917;BME280;1973;50.518;7.318;2022-08-21T05:12:40;101089.31;;;14.46;100.00
3917;BME280;1973;50.518;7.318;2022-08-21T05:15:09;101099.34;;;14.47;100.00
3917;BME280;1973;50.518;7.318;2022-08-21T05:17:40;101093.78;;;14.47;100.00
3917;BME280;1973;50.518;7.318;2022-08-21T05:20:10;101102.94;;;14.48;100.00
3917;BME280;1973;50.518;7.318;2022-08-21T05:22:37;101103.19;;;14.46;100.00
3917;BME280;1973;50.518;7.318;2022-08-21T05:25:05;101105.72;;;14.48;100.00
3917;BME280;1973;50.518;7.318;2022-08-21T05:27:36;101107.38;;;14.49;100.00
3917;BME280;1973;50.518;7.318;2022-08-21T05:30:06;101106.31;;;14.50;100.00
3917;BME280;1973;50.518;7.318;2022-08-21T05:32:34;101105.25;;;14.51;100.00
3917;BME280;1973;50.518;7.318;2022-08-21T05:35:02;101098.38;;;14.53;100.00
3917;BME280;1973;50.518;7.318;2022-08-21T05:37:28;101099.84;;;14.56;100.00
3917;BME280;1973;50.518;7.318;2022-08-21T05:39:55;101098.75;;;14.57;100.00
3917;BME280;1973;50.518;7.318;2022-08-21T05:42:42;101097.69;;;14.58;100.00
3917;BME280;1973;50.518;7.318;2022-08-21T05:45:08;101096.16;;;14.62;100.00
3917;BME280;1973;50.518;7.318;2022-08-21T05:47:35;101087.13;;;14.67;100.00
3917;BME280;1973;50.518;7.318;2022-08-21T05:50:02;101088.34;;;14.71;100.00
3917;BME280;1973;50.518;7.318;2022-08-21T05:52:29;101084.84;;;14.75;100.00
3917;BME280;1973;50.518;7.318;2022-08-21T05:54:55;101079.44;;;14.80;100.00
3917;BME280;1973;50.518;7.318;2022-08-21T05:57:22;101081.28;;;14.86;100.00
3917;BME280;1973;50.518;7.318;2022-08-21T05:59:49;101081.41;;;14.91;100.00
3917;BME280;1973;50.518;7.318;2022-08-21T06:02:17;101076.81;;;14.97;100.00
3917;BME280;1973;50.518;7.318;2022-08-21T06:04:44;101084.22;;;15.03;100.00
3917;BME280;1973;50.518;7.318;2022-08-21T06:07:11;101082.19;;;15.10;100.00
3917;BME280;1973;50.518;7.318;2022-08-21T06:09:38;101077.38;;;15.17;100.00
3917;BME280;1973;50.518;7.318;2022-08-21T06:12:09;101075.69;;;15.28;100.00
3917;BME280;1973;50.518;7.318;2022-08-21T06:14:38;101072.06;;;15.39;100.00
3917;BME280;1973;50.518;7.318;2022-08-21T06:17:07;101077.91;;;15.49;100.00
3917;BME280;1973;50.518;7.318;2022-08-21T06:19:34;101077.06;;;15.60;100.00
3917;BME280;1973;50.518;7.318;2022-08-21T06:22:00;101076.81;;;15.73;100.00
3917;BME280;1973;50.518;7.318;2022-08-21T06:24:28;101084.88;;;15.86;100.00
3917;BME280;1973;50.518;7.318;2022-08-21T06:26:55;101073.75;;;15.98;100.00
3917;BME280;1973;50.518;7.318;2022-08-21T06:29:22;101074.31;;;16.12;100.00
3917;BME280;1973;50.518;7.318;2022-08-21T06:31:50;101076.00;;;16.24;100.00
3917;BME280;1973;50.518;7.318;2022-08-21T06:34:17;101075.47;;;16.39;100.00
3917;BME280;1973;50.518;7.318;2022-08-21T06:36:44;101076.00;;;16.52;100.00
3917;BME280;1973;50.518;7.318;2022-08-21T06:39:10;101076.59;;;16.66;100.00
3917;BME280;1973;50.518;7.318;2022-08-21T06:41:50;101065.16;;;16.79;100.00
3917;BME280;1973;50.518;7.318;2022-08-21T06:44:18;101073.16;;;16.92;100.00
3917;BME280;1973;50.518;7.318;2022-08-21T06:46:45;101066.44;;;17.05;100.00
3917;BME280;1973;50.518;7.318;2022-08-21T06:49:13;101063.34;;;17.18;100.00
3917;BME280;1973;50.518;7.318;2022-08-21T06:51:47;101060.72;;;17.28;100.00
3917;BME280;1973;50.518;7.318;2022-08-21T06:54:13;101058.94;;;17.39;100.00
3917;BME280;1973;50.518;7.318;2022-08-21T06:56:40;101051.34;;;17.51;100.00
3917;BME280;1973;50.518;7.318;2022-08-21T06:59:06;101048.47;;;17.63;100.00
3917;BME280;1973;50.518;7.318;2022-08-21T07:01:32;101047.81;;;17.72;100.00
3917;BME280;1973;50.518;7.318;2022-08-21T07:03:59;101049.63;;;17.83;100.00
3917;BME280;1973;50.518;7.318;2022-08-21T07:06:25;101048.06;;;17.92;100.00
3917;BME280;1973;50.518;7.318;2022-08-21T07:08:52;101049.88;;;18.04;100.00
3917;BME280;1973;50.518;7.318;2022-08-21T07:11:22;101040.00;;;18.13;100.00
3917;BME280;1973;50.518;7.318;2022-08-21T07:13:50;101041.19;;;18.22;100.00
3917;BME280;1973;50.518;7.318;2022-08-21T07:16:22;101039.66;;;18.31;100.00
3917;BME280;1973;50.518;7.318;2022-08-21T07:18:49;101041.97;;;18.39;100.00
3917;BME280;1973;50.518;7.318;2022-08-21T07:21:16;101042.94;;;18.49;100.00
3917;BME280;1973;50.518;7.318;2022-08-21T07:23:45;101030.81;;;18.61;100.00
3917;BME280;1973;50.518;7.318;2022-08-21T07:26:15;101034.22;;;18.68;100.00
3917;BME280;1973;50.518;7.318;2022-08-21T07:28:42;101031.81;;;18.76;100.00
3917;BME280;1973;50.518;7.318;2022-08-21T07:31:13;101032.16;;;18.85;100.00
3917;BME280;1973;50.518;7.318;2022-08-21T07:33:40;101028.63;;;18.94;100.00
3917;BME280;1973;50.518;7.318;2022-08-21T07:36:07;101032.09;;;19.07;100.00
3917;BME280;1973;50.518;7.318;2022-08-21T07:38:35;101015.44;;;19.17;100.00
3917;BME280;1973;50.518;7.318;2022-08-21T07:41:03;101017.75;;;19.25;100.00
3917;BME280;1973;50.518;7.318;2022-08-21T07:43:33;101016.66;;;19.31;100.00
3917;BME280;1973;50.518;7.318;2022-08-21T07:45:59;101018.66;;;19.40;100.00
3917;BME280;1973;50.518;7.318;2022-08-21T07:48:26;101018.78;;;19.51;100.00
3917;BME280;1973;50.518;7.318;2022-08-21T07:50:52;101016.91;;;19.61;100.00
3917;BME280;1973;50.518;7.318;2022-08-21T07:53:19;101016.69;;;19.73;100.00
3917;BME280;1973;50.518;7.318;2022-08-21T07:55:45;101020.94;;;19.80;100.00
3917;BME280;1973;50.518;7.318;2022-08-21T07:58:12;101017.88;;;19.92;100.00
3917;BME280;1973;50.518;7.318;2022-08-21T08:00:39;101025.50;;;20.02;100.00
3917;BME280;1973;50.518;7.318;2022-08-21T08:03:06;101024.44;;;20.13;100.00
3917;BME280;1973;50.518;7.318;2022-08-21T08:05:32;101021.13;;;20.21;100.00
3917;BME280;1973;50.518;7.318;2022-08-21T08:08:01;101026.75;;;20.31;100.00
3917;BME280;1973;50.518;7.318;2022-08-21T08:10:28;101027.63;;;20.42;100.00
3917;BME280;1973;50.518;7.318;2022-08-21T08:12:54;101025.44;;;20.54;100.00
3917;BME280;1973;50.518;7.318;2022-08-21T08:15:24;101025.75;;;20.67;100.00
3917;BME280;1973;50.518;7.318;2022-08-21T08:17:51;101020.44;;;20.76;100.00
3917;BME280;1973;50.518;7.318;2022-08-21T08:20:18;101020.44;;;20.86;100.00
3917;BME280;1973;50.518;7.318;2022-08-21T08:22:46;101015.13;;;21.00;100.00
3917;BME280;1973;50.518;7.318;2022-08-21T08:25:16;101014.63;;;21.13;100.00
3917;BME280;1973;50.518;7.318;2022-08-21T08:27:44;101001.72;;;21.27;100.00
3917;BME280;1973;50.518;7.318;2022-08-21T08:30:13;101004.81;;;21.35;100.00
3917;BME280;1973;50.518;7.318;2022-08-21T08:32:40;100992.72;;;21.50;100.00
3917;BME280;1973;50.518;7.318;2022-08-21T08:35:08;101001.38;;;21.64;100.00
3917;BME280;1973;50.518;7.318;2022-08-21T08:37:35;100994.34;;;21.76;100.00
3917;BME280;1973;50.518;7.318;2022-08-21T08:40:14;100989.84;;;21.91;100.00
3917;BME280;1973;50.518;7.318;2022-08-21T08:42:45;100988.38;;;22.03;100.00
3917;BME280;1973;50.518;7.318;2022-08-21T08:45:17;100983.56;;;22.14;97.77
3917;BME280;1973;50.518;7.318;2022-08-21T08:47:48;100979.00;;;22.28;97.81
3917;BME280;1973;50.518;7.318;2022-08-21T08:50:19;100968.31;;;22.35;94.70
3917;BME280;1973;50.518;7.318;2022-08-21T08:52:54;100975.53;;;22.46;95.40
3917;BME280;1973;50.518;7.318;2022-08-21T08:55:35;100975.47;;;22.56;93.50
3917;BME280;1973;50.518;7.318;2022-08-21T08:58:03;100974.81;;;22.69;94.03
3917;BME280;1973;50.518;7.318;2022-08-21T09:00:30;100975.34;;;22.76;93.27
3917;BME280;1973;50.518;7.318;2022-08-21T09:02:59;100974.19;;;22.83;88.81
3917;BME280;1973;50.518;7.318;2022-08-21T09:05:30;100983.09;;;22.95;85.05
3917;BME280;1973;50.518;7.318;2022-08-21T09:10:38;100961.78;;;23.17;78.20
3917;BME280;1973;50.518;7.318;2022-08-21T09:19:07;100956.69;;;23.53;71.82
3917;BME280;1973;50.518;7.318;2022-08-21T09:22:01;100945.31;;;23.63;61.16
3917;BME280;1973;50.518;7.318;2022-08-21T09:24:47;100942.38;;;23.73;58.55
3917;BME280;1973;50.518;7.318;2022-08-21T09:27:19;100945.31;;;23.87;64.47
3917;BME280;1973;50.518;7.318;2022-08-21T09:29:47;100945.41;;;24.01;63.93
3917;BME280;1973;50.518;7.318;2022-08-21T09:32:18;100938.78;;;24.15;61.99
3917;BME280;1973;50.518;7.318;2022-08-21T09:35:03;100938.00;;;24.29;56.52
3917;BME280;1973;50.518;7.318;2022-08-21T09:37:34;100931.94;;;24.40;57.76
3917;BME280;1973;50.518;7.318;2022-08-21T09:40:03;100928.66;;;24.52;58.96
3917;BME280;1973;50.518;7.318;2022-08-21T09:42:41;100914.63;;;24.65;58.41
3917;BME280;1973;50.518;7.318;2022-08-21T09:45:15;100919.44;;;24.84;55.54
3917;BME280;1973;50.518;7.318;2022-08-21T09:47:42;100914.09;;;25.01;56.34
3917;BME280;1973;50.518;7.318;2022-08-21T09:50:14;100930.19;;;25.14;54.50
3917;BME280;1973;50.518;7.318;2022-08-21T09:52:46;100900.56;;;25.30;51.51
3917;BME280;1973;50.518;7.318;2022-08-21T09:55:21;100903.09;;;25.45;53.14
3917;BME280;1973;50.518;7.318;2022-08-21T09:58:09;100898.94;;;25.56;52.54
3917;BME280;1973;50.518;7.318;2022-08-21T10:00:36;100899.78;;;25.71;52.00
3917;BME280;1973;50.518;7.318;2022-08-21T10:03:17;100893.59;;;25.82;47.62
3917;BME280;1973;50.518;7.318;2022-08-21T10:05:59;100905.81;;;25.91;49.13
3917;BME280;1973;50.518;7.318;2022-08-21T10:08:28;100897.69;;;25.90;49.21
3917;BME280;1973;50.518;7.318;2022-08-21T10:11:02;100890.66;;;26.01;47.93
3917;BME280;1973;50.518;7.318;2022-08-21T10:13:54;100887.38;;;26.21;46.91
3917;BME280;1973;50.518;7.318;2022-08-21T10:16:36;100888.81;;;26.32;46.29
3917;BME280;1973;50.518;7.318;2022-08-21T10:19:15;100879.78;;;26.44;46.04
3917;BME280;1973;50.518;7.318;2022-08-21T10:24:31;100864.19;;;26.69;44.06
3917;BME280;1973;50.518;7.318;2022-08-21T10:27:24;100862.16;;;26.60;43.96
3917;BME280;1973;50.518;7.318;2022-08-21T10:30:00;100857.75;;;26.77;45.99
3917;BME280;1973;50.518;7.318;2022-08-21T10:35:26;100841.81;;;27.34;43.10
3917;BME280;1973;50.518;7.318;2022-08-21T10:49:22;100840.22;;;28.15;42.15
3917;BME280;1973;50.518;7.318;2022-08-21T10:54:56;100829.69;;;28.59;40.82
3917;BME280;1973;50.518;7.318;2022-08-21T10:57:33;100836.88;;;28.73;39.52
3917;BME280;1973;50.518;7.318;2022-08-21T11:00:10;100829.31;;;28.94;39.92
3917;BME280;1973;50.518;7.318;2022-08-21T11:02:53;100825.91;;;29.18;37.48
3917;BME280;1973;50.518;7.318;2022-08-21T11:05:35;100823.69;;;29.32;38.09
3917;BME280;1973;50.518;7.318;2022-08-21T11:08:18;100828.44;;;29.49;36.50
3917;BME280;1973;50.518;7.318;2022-08-21T11:18:57;100817.94;;;29.49;37.28
3917;BME280;1973;50.518;7.318;2022-08-21T11:21:34;100816.31;;;29.69;37.20
3917;BME280;1973;50.518;7.318;2022-08-21T11:26:45;100812.91;;;30.05;36.77
3917;BME280;1973;50.518;7.318;2022-08-21T11:29:27;100801.19;;;30.27;35.12
3917;BME280;1973;50.518;7.318;2022-08-21T11:45:56;100789.66;;;30.98;35.11
3917;BME280;1973;50.518;7.318;2022-08-21T11:48:40;100786.47;;;31.12;33.34
3917;BME280;1973;50.518;7.318;2022-08-21T11:51:21;100775.69;;;31.17;33.65
3917;BME280;1973;50.518;7.318;2022-08-21T11:53:55;100785.19;;;31.33;33.18
3917;BME280;1973;50.518;7.318;2022-08-21T11:56:31;100777.94;;;31.36;33.46
3917;BME280;1973;50.518;7.318;2022-08-21T11:59:04;100770.81;;;31.42;33.14
3917;BME280;1973;50.518;7.318;2022-08-21T12:01:36;100771.66;;;31.43;33.23
3917;BME280;1973;50.518;7.318;2022-08-21T12:04:08;100775.91;;;31.49;33.07
3917;BME280;1973;50.518;7.318;2022-08-21T12:06:39;100771.06;;;31.61;32.83
3917;BME280;1973;50.518;7.318;2022-08-21T12:09:09;100770.22;;;31.73;32.87
3917;BME280;1973;50.518;7.318;2022-08-21T12:14:45;100771.59;;;32.03;30.90
3917;BME280;1973;50.518;7.318;2022-08-21T12:17:24;100765.38;;;32.25;31.48
3917;BME280;1973;50.518;7.318;2022-08-21T12:20:16;100766.09;;;32.22;31.48
3917;BME280;1973;50.518;7.318;2022-08-21T12:22:50;100771.81;;;32.38;30.04
3917;BME280;1973;50.518;7.318;2022-08-21T12:25:20;100768.78;;;32.31;31.14
3917;BME280;1973;50.518;7.318;2022-08-21T12:28:09;100761.63;;;32.37;30.00
3917;BME280;1973;50.518;7.318;2022-08-21T12:30:44;100750.97;;;32.50;29.84
3917;BME280;1973;50.518;7.318;2022-08-21T12:35:51;100755.09;;;32.37;30.75
3917;BME280;1973;50.518;7.318;2022-08-21T12:38:22;100747.13;;;32.70;29.96
3917;BME280;1973;50.518;7.318;2022-08-21T12:41:00;100742.97;;;32.83;29.59
3917;BME280;1973;50.518;7.318;2022-08-21T12:43:33;100739.34;;;33.14;30.28
3917;BME280;1973;50.518;7.318;2022-08-21T12:46:03;100730.72;;;33.45;30.16
3917;BME280;1973;50.518;7.318;2022-08-21T12:48:41;100739.94;;;33.39;28.20
3917;BME280;1973;50.518;7.318;2022-08-21T12:51:12;100739.44;;;33.52;28.95
3917;BME280;1973;50.518;7.318;2022-08-21T12:53:54;100736.06;;;33.82;28.18
3917;BME280;1973;50.518;7.318;2022-08-21T12:56:29;100750.31;;;33.97;28.20
3917;BME280;1973;50.518;7.318;2022-08-21T12:59:05;100736.88;;;34.17;27.34
3917;BME280;1973;50.518;7.318;2022-08-21T13:01:43;100731.03;;;34.29;27.53
3917;BME280;1973;50.518;7.318;2022-08-21T13:04:15;100729.69;;;34.46;27.76
3917;BME280;1973;50.518;7.318;2022-08-21T13:06:46;100721.56;;;34.67;27.30
3917;BME280;1973;50.518;7.318;2022-08-21T13:09:15;100725.44;;;34.78;27.46
3917;BME280;1973;50.518;7.318;2022-08-21T13:11:45;100725.91;;;34.80;27.35
3917;BME280;1973;50.518;7.318;2022-08-21T13:14:33;100728.97;;;34.30;26.07
3917;BME280;1973;50.518;7.318;2022-08-21T13:17:10;100734.03;;;34.17;27.26
3917;BME280;1973;50.518;7.318;2022-08-21T13:19:37;100734.81;;;33.98;27.02
3917;BME280;1973;50.518;7.318;2022-08-21T13:22:12;100736.13;;;34.20;27.30
3917;BME280;1973;50.518;7.318;2022-08-21T13:25:00;100714.38;;;34.35;27.41
3917;BME280;1973;50.518;7.318;2022-08-21T13:27:32;100721.84;;;34.62;27.02
3917;BME280;1973;50.518;7.318;2022-08-21T13:30:13;100699.88;;;34.89;26.47
3917;BME280;1973;50.518;7.318;2022-08-21T13:32:48;100717.75;;;34.40;25.48
3917;BME280;1973;50.518;7.318;2022-08-21T13:35:20;100709.28;;;34.25;26.74
3917;BME280;1973;50.518;7.318;2022-08-21T13:37:48;100709.50;;;34.16;26.70
3917;BME280;1973;50.518;7.318;2022-08-21T13:40:19;100702.00;;;34.11;26.24
3917;BME280;1973;50.518;7.318;2022-08-21T13:42:47;100716.97;;;33.86;26.18
3917;BME280;1973;50.518;7.318;2022-08-21T13:45:23;100705.09;;;33.84;25.60
3917;BME280;1973;50.518;7.318;2022-08-21T13:47:51;100698.84;;;33.97;26.17
3917;BME280;1973;50.518;7.318;2022-08-21T13:50:21;100703.69;;;34.32;26.67
3917;BME280;1973;50.518;7.318;2022-08-21T13:53:03;100713.16;;;34.55;25.88
3917;BME280;1973;50.518;7.318;2022-08-21T13:55:39;100701.88;;;34.85;25.06
3917;BME280;1973;50.518;7.318;2022-08-21T13:58:06;100696.88;;;35.04;25.69
3917;BME280;1973;50.518;7.318;2022-08-21T14:00:42;100696.44;;;35.25;25.41
3917;BME280;1973;50.518;7.318;2022-08-21T14:03:10;100696.69;;;35.16;25.72
3917;BME280;1973;50.518;7.318;2022-08-21T14:05:44;100702.13;;;34.76;25.11
3917;BME280;1973;50.518;7.318;2022-08-21T14:08:23;100685.06;;;34.83;25.82
3917;BME280;1973;50.518;7.318;2022-08-21T14:10:56;100691.69;;;34.87;25.99
3917;BME280;1973;50.518;7.318;2022-08-21T14:13:36;100699.97;;;34.69;24.85
3917;BME280;1973;50.518;7.318;2022-08-21T14:18:49;100679.81;;;35.11;24.68
3917;BME280;1973;50.518;7.318;2022-08-21T14:21:27;100693.22;;;35.30;24.73
3917;BME280;1973;50.518;7.318;2022-08-21T14:26:36;100683.25;;;35.47;25.18
3917;BME280;1973;50.518;7.318;2022-08-21T14:29:08;100683.38;;;35.28;24.87